sensor_id;sensor_type;location;lat;lon;timestamp;P1;durP1;ratioP1;P2;durP2;ratioP2
74620;SDS011;64861;47.546;19.254;2023-04-23T00:01:16;8.48;;;4.90;;
74620;SDS011;64861;47.546;19.254;2023-04-23T00:03:42;8.63;;;4.53;;
74620;SDS011;64861;47.546;19.254;2023-04-23T00:06:08;9.30;;;4.70;;
74620;SDS011;64861;47.546;19.254;2023-04-23T00:08:38;8.57;;;4.95;;
74620;SDS011;64861;47.546;19.254;2023-04-23T00:11:05;10.55;;;5.05;;
74620;SDS011;64861;47.546;19.254;2023-04-23T00:13:31;9.10;;;4.80;;
74620;SDS011;64861;47.546;19.254;2023-04-23T00:15:57;9.20;;;4.80;;
74620;SDS011;64861;47.546;19.254;2023-04-23T00:18:22;10.07;;;5.47;;
74620;SDS011;64861;47.546;19.254;2023-04-23T00:20:48;8.60;;;4.35;;
74620;SDS011;64861;47.546;19.254;2023-04-23T00:23:13;7.30;;;4.32;;
74620;SDS011;64861;47.546;19.254;2023-04-23T00:25:39;10.60;;;5.00;;
74620;SDS011;64861;47.546;19.254;2023-04-23T00:28:05;8.77;;;4.93;;
74620;SDS011;64861;47.546;19.254;2023-04-23T00:30:30;9.35;;;4.22;;
74620;SDS011;64861;47.546;19.254;2023-04-23T00:32:56;7.85;;;4.65;;
74620;SDS011;64861;47.546;19.254;2023-04-23T00:35:21;8.77;;;4.90;;
74620;SDS011;64861;47.546;19.254;2023-04-23T00:37:47;11.15;;;5.00;;
74620;SDS011;64861;47.546;19.254;2023-04-23T00:40:13;6.75;;;4.22;;
74620;SDS011;64861;47.546;19.254;2023-04-23T00:42:38;8.93;;;4.32;;
74620;SDS011;64861;47.546;19.254;2023-04-23T00:45:05;8.63;;;4.25;;
74620;SDS011;64861;47.546;19.254;2023-04-23T00:47:32;9.15;;;4.65;;
74620;SDS011;64861;47.546;19.254;2023-04-23T00:49:58;11.20;;;4.70;;
74620;SDS011;64861;47.546;19.254;2023-04-23T00:52:24;7.97;;;4.50;;
74620;SDS011;64861;47.546;19.254;2023-04-23T00:54:50;7.55;;;4.20;;
74620;SDS011;64861;47.546;19.254;2023-04-23T00:57:15;9.55;;;4.80;;
74620;SDS011;64861;47.546;19.254;2023-04-23T00:59:41;6.53;;;4.13;;
74620;SDS011;64861;47.546;19.254;2023-04-23T01:02:08;7.57;;;4.10;;
74620;SDS011;64861;47.546;19.254;2023-04-23T01:04:33;9.38;;;4.70;;
74620;SDS011;64861;47.546;19.254;2023-04-23T01:07:00;7.97;;;4.38;;
74620;SDS011;64861;47.546;19.254;2023-04-23T01:09:26;7.82;;;4.57;;
74620;SDS011;64861;47.546;19.254;2023-04-23T01:11:51;7.18;;;4.28;;
74620;SDS011;64861;47.546;19.254;2023-04-23T01:14:17;6.65;;;3.90;;
74620;SDS011;64861;47.546;19.254;2023-04-23T01:16:43;7.53;;;4.30;;
74620;SDS011;64861;47.546;19.254;2023-04-23T01:19:09;8.55;;;3.92;;
74620;SDS011;64861;47.546;19.254;2023-04-23T01:21:36;8.05;;;4.50;;
74620;SDS011;64861;47.546;19.254;2023-04-23T01:24:05;7.82;;;4.20;;
74620;SDS011;64861;47.546;19.254;2023-04-23T01:26:32;7.88;;;4.32;;
74620;SDS011;64861;47.546;19.254;2023-04-23T01:28:58;7.90;;;3.88;;
74620;SDS011;64861;47.546;19.254;2023-04-23T01:31:25;8.20;;;4.05;;
74620;SDS011;64861;47.546;19.254;2023-04-23T01:33:52;8.68;;;4.65;;
74620;SDS011;64861;47.546;19.254;2023-04-23T01:36:24;6.00;;;3.67;;
74620;SDS011;64861;47.546;19.254;2023-04-23T01:38:51;6.70;;;3.72;;
74620;SDS011;64861;47.546;19.254;2023-04-23T01:41:18;8.38;;;3.83;;
74620;SDS011;64861;47.546;19.254;2023-04-23T01:43:44;8.32;;;3.92;;
74620;SDS011;64861;47.546;19.254;2023-04-23T01:46:10;6.28;;;3.72;;
74620;SDS011;64861;47.546;19.254;2023-04-23T01:48:36;7.65;;;3.90;;
74620;SDS011;64861;47.546;19.254;2023-04-23T01:51:02;8.02;;;3.95;;
74620;SDS011;64861;47.546;19.254;2023-04-23T01:53:28;6.97;;;4.00;;
74620;SDS011;64861;47.546;19.254;2023-04-23T01:55:54;6.50;;;3.78;;
74620;SDS011;64861;47.546;19.254;2023-04-23T01:58:20;7.68;;;3.92;;
74620;SDS011;64861;47.546;19.254;2023-04-23T02:00:47;8.88;;;3.70;;
74620;SDS011;64861;47.546;19.254;2023-04-23T02:03:13;7.53;;;4.10;;
74620;SDS011;64861;47.546;19.254;2023-04-23T02:05:39;8.40;;;3.88;;
74620;SDS011;64861;47.546;19.254;2023-04-23T02:08:05;7.68;;;3.63;;
74620;SDS011;64861;47.546;19.254;2023-04-23T02:10:31;7.00;;;4.18;;
74620;SDS011;64861;47.546;19.254;2023-04-23T02:12:57;8.27;;;3.85;;
74620;SDS011;64861;47.546;19.254;2023-04-23T02:15:23;6.97;;;3.67;;
74620;SDS011;64861;47.546;19.254;2023-04-23T02:17:49;9.43;;;4.00;;
74620;SDS011;64861;47.546;19.254;2023-04-23T02:20:17;6.85;;;3.72;;
74620;SDS011;64861;47.546;19.254;2023-04-23T02:22:43;8.05;;;4.13;;
74620;SDS011;64861;47.546;19.254;2023-04-23T02:25:10;8.18;;;4.20;;
74620;SDS011;64861;47.546;19.254;2023-04-23T02:27:39;7.20;;;4.28;;
74620;SDS011;64861;47.546;19.254;2023-04-23T02:30:05;6.18;;;3.88;;
74620;SDS011;64861;47.546;19.254;2023-04-23T02:32:32;6.32;;;3.58;;
74620;SDS011;64861;47.546;19.254;2023-04-23T02:34:58;7.07;;;3.67;;
74620;SDS011;64861;47.546;19.254;2023-04-23T02:37:26;6.78;;;3.67;;
74620;SDS011;64861;47.546;19.254;2023-04-23T02:39:51;6.72;;;3.58;;
74620;SDS011;64861;47.546;19.254;2023-04-23T02:42:17;6.45;;;3.80;;
74620;SDS011;64861;47.546;19.254;2023-04-23T02:44:43;6.75;;;3.55;;
74620;SDS011;64861;47.546;19.254;2023-04-23T02:47:08;8.85;;;4.53;;
74620;SDS011;64861;47.546;19.254;2023-04-23T02:49:33;7.93;;;3.80;;
74620;SDS011;64861;47.546;19.254;2023-04-23T02:51:59;6.60;;;3.75;;
74620;SDS011;64861;47.546;19.254;2023-04-23T02:54:24;7.15;;;3.78;;
74620;SDS011;64861;47.546;19.254;2023-04-23T02:56:50;6.00;;;3.25;;
74620;SDS011;64861;47.546;19.254;2023-04-23T02:59:15;5.90;;;3.70;;
74620;SDS011;64861;47.546;19.254;2023-04-23T03:01:41;7.20;;;3.78;;
74620;SDS011;64861;47.546;19.254;2023-04-23T03:04:06;6.32;;;3.60;;
74620;SDS011;64861;47.546;19.254;2023-04-23T03:06:32;6.90;;;3.47;;
74620;SDS011;64861;47.546;19.254;2023-04-23T03:08:59;6.18;;;3.65;;
74620;SDS011;64861;47.546;19.254;2023-04-23T03:11:25;7.78;;;3.65;;
74620;SDS011;64861;47.546;19.254;2023-04-23T03:13:51;9.73;;;3.80;;
74620;SDS011;64861;47.546;19.254;2023-04-23T03:16:16;6.63;;;3.80;;
74620;SDS011;64861;47.546;19.254;2023-04-23T03:18:42;6.57;;;3.40;;
74620;SDS011;64861;47.546;19.254;2023-04-23T03:21:07;7.53;;;4.00;;
74620;SDS011;64861;47.546;19.254;2023-04-23T03:23:32;7.30;;;3.38;;
74620;SDS011;64861;47.546;19.254;2023-04-23T03:25:58;7.00;;;4.00;;
74620;SDS011;64861;47.546;19.254;2023-04-23T03:28:23;5.95;;;3.55;;
74620;SDS011;64861;47.546;19.254;2023-04-23T03:30:49;6.90;;;3.47;;
74620;SDS011;64861;47.546;19.254;2023-04-23T03:33:14;6.85;;;3.33;;
74620;SDS011;64861;47.546;19.254;2023-04-23T03:35:40;9.20;;;3.80;;
74620;SDS011;64861;47.546;19.254;2023-04-23T03:38:05;7.32;;;3.42;;
74620;SDS011;64861;47.546;19.254;2023-04-23T03:40:31;6.75;;;4.00;;
74620;SDS011;64861;47.546;19.254;2023-04-23T03:42:56;5.55;;;3.53;;
74620;SDS011;64861;47.546;19.254;2023-04-23T03:45:22;7.53;;;3.80;;
74620;SDS011;64861;47.546;19.254;2023-04-23T03:47:48;6.65;;;3.60;;
74620;SDS011;64861;47.546;19.254;2023-04-23T03:50:13;5.53;;;3.35;;
74620;SDS011;64861;47.546;19.254;2023-04-23T03:52:39;7.30;;;3.80;;
74620;SDS011;64861;47.546;19.254;2023-04-23T03:55:05;6.78;;;3.60;;
74620;SDS011;64861;47.546;19.254;2023-04-23T03:57:31;6.60;;;3.50;;
74620;SDS011;64861;47.546;19.254;2023-04-23T03:59:57;5.35;;;3.10;;
74620;SDS011;64861;47.546;19.254;2023-04-23T04:02:22;5.43;;;3.10;;
74620;SDS011;64861;47.546;19.254;2023-04-23T04:04:48;6.68;;;3.55;;
74620;SDS011;64861;47.546;19.254;2023-04-23T04:07:15;14.63;;;3.33;;
74620;SDS011;64861;47.546;19.254;2023-04-23T04:09:41;7.97;;;3.45;;
74620;SDS011;64861;47.546;19.254;2023-04-23T04:12:07;6.72;;;3.35;;
74620;SDS011;64861;47.546;19.254;2023-04-23T04:14:32;6.45;;;3.65;;
74620;SDS011;64861;47.546;19.254;2023-04-23T04:16:58;5.70;;;3.22;;
74620;SDS011;64861;47.546;19.254;2023-04-23T04:19:23;10.32;;;3.35;;
74620;SDS011;64861;47.546;19.254;2023-04-23T04:21:49;7.88;;;3.50;;
74620;SDS011;64861;47.546;19.254;2023-04-23T04:24:15;6.63;;;3.70;;
74620;SDS011;64861;47.546;19.254;2023-04-23T04:26:42;6.88;;;3.78;;
74620;SDS011;64861;47.546;19.254;2023-04-23T04:29:09;11.38;;;4.50;;
74620;SDS011;64861;47.546;19.254;2023-04-23T04:31:36;7.25;;;3.80;;
74620;SDS011;64861;47.546;19.254;2023-04-23T04:34:02;11.25;;;4.63;;
74620;SDS011;64861;47.546;19.254;2023-04-23T04:36:27;11.95;;;5.80;;
74620;SDS011;64861;47.546;19.254;2023-04-23T04:38:53;10.32;;;5.50;;
74620;SDS011;64861;47.546;19.254;2023-04-23T04:41:20;18.10;;;6.57;;
74620;SDS011;64861;47.546;19.254;2023-04-23T04:43:47;11.77;;;6.32;;
74620;SDS011;64861;47.546;19.254;2023-04-23T04:46:12;16.65;;;7.55;;
74620;SDS011;64861;47.546;19.254;2023-04-23T04:48:38;19.17;;;7.25;;
74620;SDS011;64861;47.546;19.254;2023-04-23T04:51:03;21.80;;;6.93;;
74620;SDS011;64861;47.546;19.254;2023-04-23T04:53:29;19.13;;;6.90;;
74620;SDS011;64861;47.546;19.254;2023-04-23T04:55:55;18.58;;;6.78;;
74620;SDS011;64861;47.546;19.254;2023-04-23T04:58:20;17.95;;;6.72;;
74620;SDS011;64861;47.546;19.254;2023-04-23T05:00:46;23.60;;;6.47;;
74620;SDS011;64861;47.546;19.254;2023-04-23T05:03:18;25.92;;;7.28;;
74620;SDS011;64861;47.546;19.254;2023-04-23T05:05:44;26.35;;;7.18;;
74620;SDS011;64861;47.546;19.254;2023-04-23T05:08:11;25.23;;;6.50;;
74620;SDS011;64861;47.546;19.254;2023-04-23T05:10:37;21.23;;;6.35;;
74620;SDS011;64861;47.546;19.254;2023-04-23T05:13:02;23.90;;;6.68;;
74620;SDS011;64861;47.546;19.254;2023-04-23T05:15:28;30.52;;;6.43;;
74620;SDS011;64861;47.546;19.254;2023-04-23T05:17:53;19.15;;;6.47;;
74620;SDS011;64861;47.546;19.254;2023-04-23T05:20:20;14.35;;;5.43;;
74620;SDS011;64861;47.546;19.254;2023-04-23T05:22:46;22.58;;;6.20;;
74620;SDS011;64861;47.546;19.254;2023-04-23T05:25:12;20.42;;;5.60;;
74620;SDS011;64861;47.546;19.254;2023-04-23T05:27:38;20.23;;;5.82;;
74620;SDS011;64861;47.546;19.254;2023-04-23T05:30:04;22.45;;;5.53;;
74620;SDS011;64861;47.546;19.254;2023-04-23T05:32:32;25.88;;;5.50;;
74620;SDS011;64861;47.546;19.254;2023-04-23T05:34:58;23.23;;;5.18;;
74620;SDS011;64861;47.546;19.254;2023-04-23T05:37:25;14.07;;;4.90;;
74620;SDS011;64861;47.546;19.254;2023-04-23T05:39:50;19.83;;;5.50;;
74620;SDS011;64861;47.546;19.254;2023-04-23T05:42:16;17.20;;;4.95;;
74620;SDS011;64861;47.546;19.254;2023-04-23T05:44:41;14.20;;;4.82;;
74620;SDS011;64861;47.546;19.254;2023-04-23T05:47:09;25.35;;;4.70;;
74620;SDS011;64861;47.546;19.254;2023-04-23T05:49:35;21.45;;;5.20;;
74620;SDS011;64861;47.546;19.254;2023-04-23T05:52:01;34.92;;;6.40;;
74620;SDS011;64861;47.546;19.254;2023-04-23T05:54:29;32.35;;;5.78;;
74620;SDS011;64861;47.546;19.254;2023-04-23T05:56:55;16.13;;;4.82;;
74620;SDS011;64861;47.546;19.254;2023-04-23T05:59:20;33.25;;;5.00;;
74620;SDS011;64861;47.546;19.254;2023-04-23T06:01:46;23.05;;;4.43;;
74620;SDS011;64861;47.546;19.254;2023-04-23T06:04:13;20.27;;;4.90;;
74620;SDS011;64861;47.546;19.254;2023-04-23T06:06:38;17.63;;;4.00;;
74620;SDS011;64861;47.546;19.254;2023-04-23T06:09:04;15.68;;;4.25;;
74620;SDS011;64861;47.546;19.254;2023-04-23T06:11:31;20.17;;;4.38;;
74620;SDS011;64861;47.546;19.254;2023-04-23T06:13:57;19.15;;;4.15;;
74620;SDS011;64861;47.546;19.254;2023-04-23T06:16:23;20.05;;;4.55;;
74620;SDS011;64861;47.546;19.254;2023-04-23T06:18:49;26.98;;;8.38;;
74620;SDS011;64861;47.546;19.254;2023-04-23T06:21:14;45.90;;;9.20;;
74620;SDS011;64861;47.546;19.254;2023-04-23T06:23:40;30.00;;;10.45;;
74620;SDS011;64861;47.546;19.254;2023-04-23T06:26:05;57.40;;;12.35;;
74620;SDS011;64861;47.546;19.254;2023-04-23T06:28:31;47.33;;;10.02;;
74620;SDS011;64861;47.546;19.254;2023-04-23T06:30:56;28.90;;;7.05;;
74620;SDS011;64861;47.546;19.254;2023-04-23T06:33:22;31.38;;;8.20;;
74620;SDS011;64861;47.546;19.254;2023-04-23T06:35:48;27.38;;;6.68;;
74620;SDS011;64861;47.546;19.254;2023-04-23T06:38:13;27.88;;;6.28;;
74620;SDS011;64861;47.546;19.254;2023-04-23T06:40:38;19.55;;;5.53;;
74620;SDS011;64861;47.546;19.254;2023-04-23T06:43:04;19.67;;;6.28;;
74620;SDS011;64861;47.546;19.254;2023-04-23T06:45:31;18.90;;;5.88;;
74620;SDS011;64861;47.546;19.254;2023-04-23T06:47:58;29.70;;;5.80;;
74620;SDS011;64861;47.546;19.254;2023-04-23T06:50:24;22.17;;;6.38;;
74620;SDS011;64861;47.546;19.254;2023-04-23T06:52:50;23.80;;;5.60;;
74620;SDS011;64861;47.546;19.254;2023-04-23T06:55:16;21.00;;;6.00;;
74620;SDS011;64861;47.546;19.254;2023-04-23T06:57:42;18.60;;;5.57;;
74620;SDS011;64861;47.546;19.254;2023-04-23T07:00:08;18.08;;;5.93;;
74620;SDS011;64861;47.546;19.254;2023-04-23T07:02:35;15.15;;;5.82;;
74620;SDS011;64861;47.546;19.254;2023-04-23T07:05:00;20.40;;;5.18;;
74620;SDS011;64861;47.546;19.254;2023-04-23T07:07:26;15.70;;;5.53;;
74620;SDS011;64861;47.546;19.254;2023-04-23T07:09:52;20.45;;;6.25;;
74620;SDS011;64861;47.546;19.254;2023-04-23T07:12:17;15.32;;;5.47;;
74620;SDS011;64861;47.546;19.254;2023-04-23T07:14:43;12.65;;;5.00;;
74620;SDS011;64861;47.546;19.254;2023-04-23T07:17:08;11.98;;;4.20;;
74620;SDS011;64861;47.546;19.254;2023-04-23T07:19:35;14.30;;;4.93;;
74620;SDS011;64861;47.546;19.254;2023-04-23T07:22:01;18.92;;;4.70;;
74620;SDS011;64861;47.546;19.254;2023-04-23T07:24:27;16.48;;;5.15;;
74620;SDS011;64861;47.546;19.254;2023-04-23T07:26:52;20.10;;;5.22;;
74620;SDS011;64861;47.546;19.254;2023-04-23T07:29:18;15.35;;;4.78;;
74620;SDS011;64861;47.546;19.254;2023-04-23T07:31:43;15.15;;;5.13;;
74620;SDS011;64861;47.546;19.254;2023-04-23T07:34:10;17.83;;;4.68;;
74620;SDS011;64861;47.546;19.254;2023-04-23T07:36:36;13.70;;;4.57;;
74620;SDS011;64861;47.546;19.254;2023-04-23T07:39:02;15.02;;;4.70;;
74620;SDS011;64861;47.546;19.254;2023-04-23T07:41:29;11.95;;;4.32;;
74620;SDS011;64861;47.546;19.254;2023-04-23T07:43:54;13.73;;;4.60;;
74620;SDS011;64861;47.546;19.254;2023-04-23T07:46:20;12.70;;;4.50;;
74620;SDS011;64861;47.546;19.254;2023-04-23T07:48:46;11.55;;;4.38;;
74620;SDS011;64861;47.546;19.254;2023-04-23T07:51:11;13.60;;;4.35;;
74620;SDS011;64861;47.546;19.254;2023-04-23T07:53:36;12.63;;;4.40;;
74620;SDS011;64861;47.546;19.254;2023-04-23T07:56:02;11.00;;;4.25;;
74620;SDS011;64861;47.546;19.254;2023-04-23T07:58:27;13.25;;;4.30;;
74620;SDS011;64861;47.546;19.254;2023-04-23T08:00:53;13.35;;;4.72;;
74620;SDS011;64861;47.546;19.254;2023-04-23T08:03:18;10.40;;;4.18;;
74620;SDS011;64861;47.546;19.254;2023-04-23T08:05:44;12.18;;;4.13;;
74620;SDS011;64861;47.546;19.254;2023-04-23T08:08:10;10.30;;;3.97;;
74620;SDS011;64861;47.546;19.254;2023-04-23T08:10:36;8.98;;;3.80;;
74620;SDS011;64861;47.546;19.254;2023-04-23T08:13:02;12.73;;;3.83;;
74620;SDS011;64861;47.546;19.254;2023-04-23T08:15:27;8.50;;;3.72;;
74620;SDS011;64861;47.546;19.254;2023-04-23T08:17:53;11.70;;;3.67;;
74620;SDS011;64861;47.546;19.254;2023-04-23T08:20:19;9.50;;;3.30;;
74620;SDS011;64861;47.546;19.254;2023-04-23T08:22:44;11.55;;;3.58;;
74620;SDS011;64861;47.546;19.254;2023-04-23T08:25:10;9.05;;;3.30;;
74620;SDS011;64861;47.546;19.254;2023-04-23T08:27:36;8.65;;;3.75;;
74620;SDS011;64861;47.546;19.254;2023-04-23T08:30:03;7.72;;;3.22;;
74620;SDS011;64861;47.546;19.254;2023-04-23T08:32:29;8.85;;;3.83;;
74620;SDS011;64861;47.546;19.254;2023-04-23T08:34:54;8.65;;;3.50;;
74620;SDS011;64861;47.546;19.254;2023-04-23T08:37:20;7.70;;;3.35;;
74620;SDS011;64861;47.546;19.254;2023-04-23T08:39:45;9.45;;;3.78;;
74620;SDS011;64861;47.546;19.254;2023-04-23T08:42:33;8.15;;;3.40;;
74620;SDS011;64861;47.546;19.254;2023-04-23T08:45:03;7.80;;;3.22;;
74620;SDS011;64861;47.546;19.254;2023-04-23T08:47:29;8.05;;;3.30;;
74620;SDS011;64861;47.546;19.254;2023-04-23T08:49:57;7.55;;;3.25;;
74620;SDS011;64861;47.546;19.254;2023-04-23T08:52:24;7.95;;;3.40;;
74620;SDS011;64861;47.546;19.254;2023-04-23T08:54:56;7.00;;;3.05;;
74620;SDS011;64861;47.546;19.254;2023-04-23T08:57:28;9.85;;;3.55;;
74620;SDS011;64861;47.546;19.254;2023-04-23T08:59:55;8.50;;;3.45;;
74620;SDS011;64861;47.546;19.254;2023-04-23T09:02:22;7.32;;;3.00;;
74620;SDS011;64861;47.546;19.254;2023-04-23T09:04:48;7.50;;;3.05;;
74620;SDS011;64861;47.546;19.254;2023-04-23T09:07:13;9.32;;;3.58;;
74620;SDS011;64861;47.546;19.254;2023-04-23T09:09:40;9.75;;;2.92;;
74620;SDS011;64861;47.546;19.254;2023-04-23T09:12:06;8.00;;;3.10;;
74620;SDS011;64861;47.546;19.254;2023-04-23T09:14:32;8.75;;;3.00;;
74620;SDS011;64861;47.546;19.254;2023-04-23T09:16:59;7.78;;;3.20;;
74620;SDS011;64861;47.546;19.254;2023-04-23T09:19:25;6.35;;;2.95;;
74620;SDS011;64861;47.546;19.254;2023-04-23T09:21:55;9.15;;;2.90;;
74620;SDS011;64861;47.546;19.254;2023-04-23T09:24:21;6.55;;;2.83;;
74620;SDS011;64861;47.546;19.254;2023-04-23T09:26:48;5.28;;;2.80;;
74620;SDS011;64861;47.546;19.254;2023-04-23T09:29:16;6.28;;;2.70;;
74620;SDS011;64861;47.546;19.254;2023-04-23T09:31:44;7.78;;;3.35;;
74620;SDS011;64861;47.546;19.254;2023-04-23T09:34:13;7.45;;;3.35;;
74620;SDS011;64861;47.546;19.254;2023-04-23T09:36:43;8.80;;;3.00;;
74620;SDS011;64861;47.546;19.254;2023-04-23T09:39:28;6.93;;;2.72;;
74620;SDS011;64861;47.546;19.254;2023-04-23T09:41:54;7.72;;;2.65;;
74620;SDS011;64861;47.546;19.254;2023-04-23T09:44:29;6.78;;;2.97;;
74620;SDS011;64861;47.546;19.254;2023-04-23T09:47:05;9.05;;;2.97;;
74620;SDS011;64861;47.546;19.254;2023-04-23T09:49:43;5.30;;;2.80;;
74620;SDS011;64861;47.546;19.254;2023-04-23T09:52:12;4.80;;;2.55;;
74620;SDS011;64861;47.546;19.254;2023-04-23T09:54:38;7.75;;;2.80;;
74620;SDS011;64861;47.546;19.254;2023-04-23T09:57:04;6.63;;;2.80;;
74620;SDS011;64861;47.546;19.254;2023-04-23T09:59:32;5.85;;;2.60;;
74620;SDS011;64861;47.546;19.254;2023-04-23T10:02:01;6.05;;;2.58;;
74620;SDS011;64861;47.546;19.254;2023-04-23T10:04:28;6.40;;;2.53;;
74620;SDS011;64861;47.546;19.254;2023-04-23T10:06:54;5.63;;;2.58;;
74620;SDS011;64861;47.546;19.254;2023-04-23T10:09:25;6.68;;;2.67;;
74620;SDS011;64861;47.546;19.254;2023-04-23T10:11:56;5.85;;;2.53;;
74620;SDS011;64861;47.546;19.254;2023-04-23T10:14:26;5.47;;;2.58;;
74620;SDS011;64861;47.546;19.254;2023-04-23T10:17:02;5.75;;;2.47;;
74620;SDS011;64861;47.546;19.254;2023-04-23T10:19:29;6.05;;;2.60;;
74620;SDS011;64861;47.546;19.254;2023-04-23T10:21:59;6.80;;;2.47;;
74620;SDS011;64861;47.546;19.254;2023-04-23T10:24:32;7.15;;;2.45;;
74620;SDS011;64861;47.546;19.254;2023-04-23T10:27:00;6.65;;;2.75;;
74620;SDS011;64861;47.546;19.254;2023-04-23T10:29:31;4.88;;;2.28;;
74620;SDS011;64861;47.546;19.254;2023-04-23T10:32:06;6.32;;;2.45;;
74620;SDS011;64861;47.546;19.254;2023-04-23T10:34:32;5.20;;;2.50;;
74620;SDS011;64861;47.546;19.254;2023-04-23T10:36:58;5.88;;;2.33;;
74620;SDS011;64861;47.546;19.254;2023-04-23T10:39:32;6.40;;;2.70;;
74620;SDS011;64861;47.546;19.254;2023-04-23T10:44:31;4.95;;;2.17;;
74620;SDS011;64861;47.546;19.254;2023-04-23T10:47:08;6.05;;;2.30;;
74620;SDS011;64861;47.546;19.254;2023-04-23T10:49:36;4.88;;;2.30;;
74620;SDS011;64861;47.546;19.254;2023-04-23T10:52:13;5.80;;;2.50;;
74620;SDS011;64861;47.546;19.254;2023-04-23T10:54:40;5.93;;;2.47;;
74620;SDS011;64861;47.546;19.254;2023-04-23T10:57:07;5.28;;;2.58;;
74620;SDS011;64861;47.546;19.254;2023-04-23T10:59:37;5.97;;;2.50;;
74620;SDS011;64861;47.546;19.254;2023-04-23T11:02:07;4.15;;;2.13;;
74620;SDS011;64861;47.546;19.254;2023-04-23T11:04:36;4.65;;;2.22;;
74620;SDS011;64861;47.546;19.254;2023-04-23T11:07:06;6.68;;;2.40;;
74620;SDS011;64861;47.546;19.254;2023-04-23T11:09:48;6.45;;;2.33;;
74620;SDS011;64861;47.546;19.254;2023-04-23T11:14:49;5.35;;;2.42;;
74620;SDS011;64861;47.546;19.254;2023-04-23T11:17:20;6.15;;;2.53;;
74620;SDS011;64861;47.546;19.254;2023-04-23T11:20:11;5.50;;;2.38;;
74620;SDS011;64861;47.546;19.254;2023-04-23T11:22:41;4.82;;;2.17;;
74620;SDS011;64861;47.546;19.254;2023-04-23T11:25:09;4.82;;;2.30;;
74620;SDS011;64861;47.546;19.254;2023-04-23T11:27:40;5.50;;;2.50;;
74620;SDS011;64861;47.546;19.254;2023-04-23T11:32:45;5.60;;;2.35;;
74620;SDS011;64861;47.546;19.254;2023-04-23T11:35:16;5.45;;;2.40;;
74620;SDS011;64861;47.546;19.254;2023-04-23T11:37:43;4.85;;;2.00;;
74620;SDS011;64861;47.546;19.254;2023-04-23T11:40:11;4.70;;;2.00;;
74620;SDS011;64861;47.546;19.254;2023-04-23T11:42:45;5.43;;;2.15;;
74620;SDS011;64861;47.546;19.254;2023-04-23T11:45:18;4.78;;;2.15;;
74620;SDS011;64861;47.546;19.254;2023-04-23T11:47:52;4.00;;;1.80;;
74620;SDS011;64861;47.546;19.254;2023-04-23T11:52:51;4.45;;;1.95;;
74620;SDS011;64861;47.546;19.254;2023-04-23T11:55:17;5.07;;;2.10;;
74620;SDS011;64861;47.546;19.254;2023-04-23T11:57:44;6.82;;;2.30;;
74620;SDS011;64861;47.546;19.254;2023-04-23T12:00:12;4.97;;;2.28;;
74620;SDS011;64861;47.546;19.254;2023-04-23T12:02:49;5.10;;;2.30;;
74620;SDS011;64861;47.546;19.254;2023-04-23T12:05:27;5.40;;;2.63;;
74620;SDS011;64861;47.546;19.254;2023-04-23T12:08:16;7.47;;;2.70;;
74620;SDS011;64861;47.546;19.254;2023-04-23T12:10:52;5.28;;;2.50;;
74620;SDS011;64861;47.546;19.254;2023-04-23T12:13:26;4.53;;;2.00;;
74620;SDS011;64861;47.546;19.254;2023-04-23T12:15:55;5.03;;;2.08;;
74620;SDS011;64861;47.546;19.254;2023-04-23T12:18:32;5.55;;;2.60;;
74620;SDS011;64861;47.546;19.254;2023-04-23T12:23:30;5.43;;;2.13;;
74620;SDS011;64861;47.546;19.254;2023-04-23T12:25:57;4.80;;;2.22;;
74620;SDS011;64861;47.546;19.254;2023-04-23T12:28:22;5.22;;;2.22;;
74620;SDS011;64861;47.546;19.254;2023-04-23T12:30:49;4.68;;;2.25;;
74620;SDS011;64861;47.546;19.254;2023-04-23T12:33:14;5.90;;;2.10;;
74620;SDS011;64861;47.546;19.254;2023-04-23T12:35:42;4.95;;;2.25;;
74620;SDS011;64861;47.546;19.254;2023-04-23T12:38:22;3.45;;;1.75;;
74620;SDS011;64861;47.546;19.254;2023-04-23T12:40:49;4.97;;;2.17;;
74620;SDS011;64861;47.546;19.254;2023-04-23T12:43:15;7.22;;;2.22;;
74620;SDS011;64861;47.546;19.254;2023-04-23T12:45:41;4.47;;;2.22;;
74620;SDS011;64861;47.546;19.254;2023-04-23T12:48:06;5.63;;;2.25;;
74620;SDS011;64861;47.546;19.254;2023-04-23T12:50:31;4.68;;;1.83;;
74620;SDS011;64861;47.546;19.254;2023-04-23T12:52:57;4.43;;;1.90;;
74620;SDS011;64861;47.546;19.254;2023-04-23T12:55:22;5.53;;;2.10;;
74620;SDS011;64861;47.546;19.254;2023-04-23T12:57:48;4.13;;;2.00;;
74620;SDS011;64861;47.546;19.254;2023-04-23T13:00:13;4.53;;;1.85;;
74620;SDS011;64861;47.546;19.254;2023-04-23T13:02:39;3.60;;;1.75;;
74620;SDS011;64861;47.546;19.254;2023-04-23T13:05:04;3.78;;;1.92;;
74620;SDS011;64861;47.546;19.254;2023-04-23T13:07:30;4.78;;;1.90;;
74620;SDS011;64861;47.546;19.254;2023-04-23T13:09:56;3.58;;;1.70;;
74620;SDS011;64861;47.546;19.254;2023-04-23T13:12:23;3.95;;;1.88;;
74620;SDS011;64861;47.546;19.254;2023-04-23T13:14:49;4.22;;;1.90;;
74620;SDS011;64861;47.546;19.254;2023-04-23T13:17:14;3.03;;;1.70;;
74620;SDS011;64861;47.546;19.254;2023-04-23T13:19:40;3.88;;;1.80;;
74620;SDS011;64861;47.546;19.254;2023-04-23T13:22:05;4.07;;;1.83;;
74620;SDS011;64861;47.546;19.254;2023-04-23T13:24:31;3.55;;;1.90;;
74620;SDS011;64861;47.546;19.254;2023-04-23T13:26:57;6.95;;;2.00;;
74620;SDS011;64861;47.546;19.254;2023-04-23T13:29:23;8.82;;;2.83;;
74620;SDS011;64861;47.546;19.254;2023-04-23T13:31:52;9.43;;;3.08;;
74620;SDS011;64861;47.546;19.254;2023-04-23T13:34:18;6.00;;;2.25;;
74620;SDS011;64861;47.546;19.254;2023-04-23T13:36:44;7.22;;;2.40;;
74620;SDS011;64861;47.546;19.254;2023-04-23T13:39:10;7.50;;;2.58;;
74620;SDS011;64861;47.546;19.254;2023-04-23T13:41:40;6.38;;;2.33;;
74620;SDS011;64861;47.546;19.254;2023-04-23T13:44:06;6.05;;;2.50;;
74620;SDS011;64861;47.546;19.254;2023-04-23T13:46:31;5.68;;;2.30;;
74620;SDS011;64861;47.546;19.254;2023-04-23T13:48:57;5.40;;;2.28;;
74620;SDS011;64861;47.546;19.254;2023-04-23T13:51:24;13.27;;;2.42;;
74620;SDS011;64861;47.546;19.254;2023-04-23T13:53:49;6.22;;;2.60;;
74620;SDS011;64861;47.546;19.254;2023-04-23T13:56:15;9.63;;;2.30;;
74620;SDS011;64861;47.546;19.254;2023-04-23T13:58:40;5.05;;;2.17;;
74620;SDS011;64861;47.546;19.254;2023-04-23T14:01:09;11.10;;;2.40;;
74620;SDS011;64861;47.546;19.254;2023-04-23T14:03:35;6.05;;;2.15;;
74620;SDS011;64861;47.546;19.254;2023-04-23T14:06:01;5.28;;;2.17;;
74620;SDS011;64861;47.546;19.254;2023-04-23T14:08:27;5.30;;;2.22;;
74620;SDS011;64861;47.546;19.254;2023-04-23T14:10:52;7.10;;;2.40;;
74620;SDS011;64861;47.546;19.254;2023-04-23T14:13:18;7.43;;;2.30;;
74620;SDS011;64861;47.546;19.254;2023-04-23T14:15:43;7.57;;;2.35;;
74620;SDS011;64861;47.546;19.254;2023-04-23T14:18:09;7.50;;;2.58;;
74620;SDS011;64861;47.546;19.254;2023-04-23T14:20:34;7.68;;;2.53;;
74620;SDS011;64861;47.546;19.254;2023-04-23T14:23:01;8.68;;;2.65;;
74620;SDS011;64861;47.546;19.254;2023-04-23T14:25:34;7.35;;;2.90;;
74620;SDS011;64861;47.546;19.254;2023-04-23T14:30:54;9.65;;;2.53;;
74620;SDS011;64861;47.546;19.254;2023-04-23T14:33:21;9.07;;;3.78;;
74620;SDS011;64861;47.546;19.254;2023-04-23T14:35:47;11.98;;;4.47;;
74620;SDS011;64861;47.546;19.254;2023-04-23T14:38:12;11.80;;;5.07;;
74620;SDS011;64861;47.546;19.254;2023-04-23T14:40:38;49.58;;;30.20;;
74620;SDS011;64861;47.546;19.254;2023-04-23T14:43:03;46.53;;;30.38;;
74620;SDS011;64861;47.546;19.254;2023-04-23T14:45:30;33.05;;;17.65;;